sensor_id;sensor_type;location;lat;lon;timestamp;P1;durP1;ratioP1;P2;durP2;ratioP2
4084;SDS011;2057;50.858;6.572;2023-04-06T00:00:56;22.17;;;14.23;;
4084;SDS011;2057;50.858;6.572;2023-04-06T00:03:22;24.17;;;13.80;;
4084;SDS011;2057;50.858;6.572;2023-04-06T00:05:48;33.60;;;13.93;;
4084;SDS011;2057;50.858;6.572;2023-04-06T00:08:16;22.35;;;14.05;;
4084;SDS011;2057;50.858;6.572;2023-04-06T00:10:41;26.63;;;12.83;;
4084;SDS011;2057;50.858;6.572;2023-04-06T00:13:07;25.97;;;13.30;;
4084;SDS011;2057;50.858;6.572;2023-04-06T00:15:32;24.50;;;13.00;;
4084;SDS011;2057;50.858;6.572;2023-04-06T00:17:58;26.20;;;12.33;;
4084;SDS011;2057;50.858;6.572;2023-04-06T00:20:23;25.23;;;12.17;;
4084;SDS011;2057;50.858;6.572;2023-04-06T00:22:49;25.50;;;10.97;;
4084;SDS011;2057;50.858;6.572;2023-04-06T00:25:15;21.23;;;10.67;;
4084;SDS011;2057;50.858;6.572;2023-04-06T00:27:40;24.00;;;13.80;;
4084;SDS011;2057;50.858;6.572;2023-04-06T00:30:09;21.95;;;11.65;;
4084;SDS011;2057;50.858;6.572;2023-04-06T00:32:35;30.63;;;12.60;;
4084;SDS011;2057;50.858;6.572;2023-04-06T00:35:04;18.65;;;12.15;;
4084;SDS011;2057;50.858;6.572;2023-04-06T00:37:30;33.50;;;11.68;;
4084;SDS011;2057;50.858;6.572;2023-04-06T00:39:56;21.80;;;11.93;;
4084;SDS011;2057;50.858;6.572;2023-04-06T00:42:21;23.53;;;11.67;;
4084;SDS011;2057;50.858;6.572;2023-04-06T00:44:54;18.40;;;10.48;;
4084;SDS011;2057;50.858;6.572;2023-04-06T00:47:23;17.75;;;11.52;;
4084;SDS011;2057;50.858;6.572;2023-04-06T00:49:50;21.00;;;11.70;;
4084;SDS011;2057;50.858;6.572;2023-04-06T00:52:16;18.27;;;10.70;;
4084;SDS011;2057;50.858;6.572;2023-04-06T00:54:42;18.20;;;11.10;;
4084;SDS011;2057;50.858;6.572;2023-04-06T00:57:07;25.63;;;11.00;;
4084;SDS011;2057;50.858;6.572;2023-04-06T00:59:33;23.47;;;12.90;;
4084;SDS011;2057;50.858;6.572;2023-04-06T01:01:58;19.90;;;12.53;;
4084;SDS011;2057;50.858;6.572;2023-04-06T01:04:23;18.30;;;10.30;;
4084;SDS011;2057;50.858;6.572;2023-04-06T01:06:49;23.30;;;11.40;;
4084;SDS011;2057;50.858;6.572;2023-04-06T01:09:15;33.97;;;12.53;;
4084;SDS011;2057;50.858;6.572;2023-04-06T01:11:41;28.17;;;11.90;;
4084;SDS011;2057;50.858;6.572;2023-04-06T01:14:07;19.43;;;11.27;;
4084;SDS011;2057;50.858;6.572;2023-04-06T01:16:35;25.73;;;12.45;;
4084;SDS011;2057;50.858;6.572;2023-04-06T01:19:01;20.23;;;12.67;;
4084;SDS011;2057;50.858;6.572;2023-04-06T01:21:33;23.10;;;12.35;;
4084;SDS011;2057;50.858;6.572;2023-04-06T01:23:58;16.30;;;9.17;;
4084;SDS011;2057;50.858;6.572;2023-04-06T01:26:24;20.33;;;9.43;;
4084;SDS011;2057;50.858;6.572;2023-04-06T01:28:51;19.70;;;10.77;;
4084;SDS011;2057;50.858;6.572;2023-04-06T01:31:17;20.30;;;10.57;;
4084;SDS011;2057;50.858;6.572;2023-04-06T01:33:42;22.70;;;12.50;;
4084;SDS011;2057;50.858;6.572;2023-04-06T01:36:11;22.23;;;11.37;;
4084;SDS011;2057;50.858;6.572;2023-04-06T01:38:36;23.65;;;11.43;;
4084;SDS011;2057;50.858;6.572;2023-04-06T01:41:02;20.80;;;12.33;;
4084;SDS011;2057;50.858;6.572;2023-04-06T01:43:27;21.50;;;10.53;;
4084;SDS011;2057;50.858;6.572;2023-04-06T01:45:52;25.73;;;11.67;;
4084;SDS011;2057;50.858;6.572;2023-04-06T01:48:18;21.83;;;10.47;;
4084;SDS011;2057;50.858;6.572;2023-04-06T01:50:43;18.30;;;10.83;;
4084;SDS011;2057;50.858;6.572;2023-04-06T01:53:09;30.30;;;12.80;;
4084;SDS011;2057;50.858;6.572;2023-04-06T01:55:34;17.17;;;10.80;;
4084;SDS011;2057;50.858;6.572;2023-04-06T01:58:00;23.77;;;12.33;;
4084;SDS011;2057;50.858;6.572;2023-04-06T02:00:25;23.43;;;12.40;;
4084;SDS011;2057;50.858;6.572;2023-04-06T02:02:50;23.10;;;11.77;;
4084;SDS011;2057;50.858;6.572;2023-04-06T02:05:16;24.80;;;11.53;;
4084;SDS011;2057;50.858;6.572;2023-04-06T02:07:41;23.80;;;11.87;;
4084;SDS011;2057;50.858;6.572;2023-04-06T02:10:11;15.57;;;10.93;;
4084;SDS011;2057;50.858;6.572;2023-04-06T02:12:37;19.92;;;10.48;;
4084;SDS011;2057;50.858;6.572;2023-04-06T02:15:03;18.67;;;9.73;;
4084;SDS011;2057;50.858;6.572;2023-04-06T02:17:28;24.47;;;11.60;;
4084;SDS011;2057;50.858;6.572;2023-04-06T02:19:54;20.10;;;10.07;;
4084;SDS011;2057;50.858;6.572;2023-04-06T02:22:19;17.67;;;10.60;;
4084;SDS011;2057;50.858;6.572;2023-04-06T02:24:45;21.10;;;10.67;;
4084;SDS011;2057;50.858;6.572;2023-04-06T02:27:11;21.02;;;10.27;;
4084;SDS011;2057;50.858;6.572;2023-04-06T02:29:37;20.13;;;11.30;;
4084;SDS011;2057;50.858;6.572;2023-04-06T02:32:02;25.63;;;14.10;;
4084;SDS011;2057;50.858;6.572;2023-04-06T02:34:28;28.90;;;15.13;;
4084;SDS011;2057;50.858;6.572;2023-04-06T02:36:56;49.97;;;16.23;;
4084;SDS011;2057;50.858;6.572;2023-04-06T02:39:21;27.50;;;16.20;;
4084;SDS011;2057;50.858;6.572;2023-04-06T02:41:47;33.00;;;16.50;;
4084;SDS011;2057;50.858;6.572;2023-04-06T02:44:13;31.33;;;17.90;;
4084;SDS011;2057;50.858;6.572;2023-04-06T02:46:38;29.70;;;16.13;;
4084;SDS011;2057;50.858;6.572;2023-04-06T02:49:03;25.33;;;16.53;;
4084;SDS011;2057;50.858;6.572;2023-04-06T02:51:29;31.90;;;17.80;;
4084;SDS011;2057;50.858;6.572;2023-04-06T02:53:54;37.03;;;19.10;;
4084;SDS011;2057;50.858;6.572;2023-04-06T02:56:20;35.40;;;20.07;;
4084;SDS011;2057;50.858;6.572;2023-04-06T02:58:46;33.78;;;19.90;;
4084;SDS011;2057;50.858;6.572;2023-04-06T03:01:12;30.90;;;18.50;;
4084;SDS011;2057;50.858;6.572;2023-04-06T03:03:43;28.45;;;18.30;;
4084;SDS011;2057;50.858;6.572;2023-04-06T03:06:08;37.23;;;19.40;;
4084;SDS011;2057;50.858;6.572;2023-04-06T03:08:34;27.45;;;17.38;;
4084;SDS011;2057;50.858;6.572;2023-04-06T03:11:00;31.07;;;17.57;;
4084;SDS011;2057;50.858;6.572;2023-04-06T03:13:26;36.27;;;16.87;;
4084;SDS011;2057;50.858;6.572;2023-04-06T03:15:51;24.60;;;15.83;;
4084;SDS011;2057;50.858;6.572;2023-04-06T03:18:20;28.77;;;16.60;;
4084;SDS011;2057;50.858;6.572;2023-04-06T03:20:47;22.52;;;13.85;;
4084;SDS011;2057;50.858;6.572;2023-04-06T03:23:12;27.93;;;15.03;;
4084;SDS011;2057;50.858;6.572;2023-04-06T03:25:38;26.63;;;15.30;;
4084;SDS011;2057;50.858;6.572;2023-04-06T03:28:04;25.95;;;14.77;;
4084;SDS011;2057;50.858;6.572;2023-04-06T03:30:30;26.33;;;13.90;;
4084;SDS011;2057;50.858;6.572;2023-04-06T03:32:55;25.97;;;14.50;;
4084;SDS011;2057;50.858;6.572;2023-04-06T03:35:21;26.67;;;14.30;;
4084;SDS011;2057;50.858;6.572;2023-04-06T03:37:46;31.90;;;12.67;;
4084;SDS011;2057;50.858;6.572;2023-04-06T03:40:11;23.13;;;14.20;;
4084;SDS011;2057;50.858;6.572;2023-04-06T03:42:37;32.70;;;13.07;;
4084;SDS011;2057;50.858;6.572;2023-04-06T03:45:05;20.33;;;12.55;;
4084;SDS011;2057;50.858;6.572;2023-04-06T03:47:30;19.53;;;12.40;;
4084;SDS011;2057;50.858;6.572;2023-04-06T03:49:56;23.70;;;11.80;;
4084;SDS011;2057;50.858;6.572;2023-04-06T03:52:21;26.70;;;12.10;;
4084;SDS011;2057;50.858;6.572;2023-04-06T03:54:48;17.65;;;10.70;;
4084;SDS011;2057;50.858;6.572;2023-04-06T03:57:13;18.37;;;12.50;;
4084;SDS011;2057;50.858;6.572;2023-04-06T03:59:39;19.07;;;11.50;;
4084;SDS011;2057;50.858;6.572;2023-04-06T04:02:05;26.67;;;12.47;;
4084;SDS011;2057;50.858;6.572;2023-04-06T04:04:30;21.70;;;12.03;;
4084;SDS011;2057;50.858;6.572;2023-04-06T04:06:55;25.30;;;13.00;;
4084;SDS011;2057;50.858;6.572;2023-04-06T04:09:21;21.10;;;12.13;;
4084;SDS011;2057;50.858;6.572;2023-04-06T04:11:46;22.67;;;13.80;;
4084;SDS011;2057;50.858;6.572;2023-04-06T04:14:11;22.87;;;11.30;;
4084;SDS011;2057;50.858;6.572;2023-04-06T04:16:37;21.67;;;12.30;;
4084;SDS011;2057;50.858;6.572;2023-04-06T04:19:04;28.45;;;10.50;;
4084;SDS011;2057;50.858;6.572;2023-04-06T04:21:30;22.27;;;10.80;;
4084;SDS011;2057;50.858;6.572;2023-04-06T04:23:56;17.90;;;11.05;;
4084;SDS011;2057;50.858;6.572;2023-04-06T04:26:22;24.70;;;12.43;;
4084;SDS011;2057;50.858;6.572;2023-04-06T04:28:47;24.43;;;12.63;;
4084;SDS011;2057;50.858;6.572;2023-04-06T04:31:12;17.47;;;11.20;;
4084;SDS011;2057;50.858;6.572;2023-04-06T04:33:38;31.80;;;12.30;;
4084;SDS011;2057;50.858;6.572;2023-04-06T04:36:03;23.63;;;11.23;;
4084;SDS011;2057;50.858;6.572;2023-04-06T04:38:29;26.80;;;12.97;;
4084;SDS011;2057;50.858;6.572;2023-04-06T04:40:54;19.73;;;11.20;;
4084;SDS011;2057;50.858;6.572;2023-04-06T04:43:20;22.03;;;11.50;;
4084;SDS011;2057;50.858;6.572;2023-04-06T04:45:46;21.53;;;11.77;;
4084;SDS011;2057;50.858;6.572;2023-04-06T04:48:11;21.63;;;11.53;;
4084;SDS011;2057;50.858;6.572;2023-04-06T04:50:36;29.10;;;13.67;;
4084;SDS011;2057;50.858;6.572;2023-04-06T04:53:02;27.03;;;13.93;;
4084;SDS011;2057;50.858;6.572;2023-04-06T04:55:30;20.95;;;11.50;;
4084;SDS011;2057;50.858;6.572;2023-04-06T04:57:55;16.90;;;10.97;;
4084;SDS011;2057;50.858;6.572;2023-04-06T05:00:21;27.70;;;12.67;;
4084;SDS011;2057;50.858;6.572;2023-04-06T05:02:46;23.47;;;12.10;;
4084;SDS011;2057;50.858;6.572;2023-04-06T05:05:12;20.50;;;11.37;;
4084;SDS011;2057;50.858;6.572;2023-04-06T05:07:37;17.40;;;9.97;;
4084;SDS011;2057;50.858;6.572;2023-04-06T05:10:03;22.93;;;11.03;;
4084;SDS011;2057;50.858;6.572;2023-04-06T05:12:28;24.83;;;11.90;;
4084;SDS011;2057;50.858;6.572;2023-04-06T05:14:54;23.03;;;12.33;;
4084;SDS011;2057;50.858;6.572;2023-04-06T05:17:19;25.87;;;10.73;;
4084;SDS011;2057;50.858;6.572;2023-04-06T05:19:45;27.20;;;12.37;;
4084;SDS011;2057;50.858;6.572;2023-04-06T05:22:11;17.90;;;10.87;;
4084;SDS011;2057;50.858;6.572;2023-04-06T05:24:39;23.98;;;13.02;;
4084;SDS011;2057;50.858;6.572;2023-04-06T05:27:05;20.83;;;10.93;;
4084;SDS011;2057;50.858;6.572;2023-04-06T05:29:30;19.70;;;11.60;;
4084;SDS011;2057;50.858;6.572;2023-04-06T05:31:56;34.07;;;11.47;;
4084;SDS011;2057;50.858;6.572;2023-04-06T05:34:21;27.70;;;11.10;;
4084;SDS011;2057;50.858;6.572;2023-04-06T05:36:47;31.40;;;12.77;;
4084;SDS011;2057;50.858;6.572;2023-04-06T05:39:12;26.83;;;11.67;;
4084;SDS011;2057;50.858;6.572;2023-04-06T05:41:38;36.70;;;12.30;;
4084;SDS011;2057;50.858;6.572;2023-04-06T05:44:03;28.47;;;12.57;;
4084;SDS011;2057;50.858;6.572;2023-04-06T05:46:31;22.33;;;12.40;;
4084;SDS011;2057;50.858;6.572;2023-04-06T05:48:56;24.33;;;11.32;;
4084;SDS011;2057;50.858;6.572;2023-04-06T05:51:22;26.73;;;11.70;;
4084;SDS011;2057;50.858;6.572;2023-04-06T05:53:47;27.40;;;11.17;;
4084;SDS011;2057;50.858;6.572;2023-04-06T05:56:13;54.13;;;12.93;;
4084;SDS011;2057;50.858;6.572;2023-04-06T05:58:41;23.42;;;11.85;;
4084;SDS011;2057;50.858;6.572;2023-04-06T06:01:06;22.20;;;11.50;;
4084;SDS011;2057;50.858;6.572;2023-04-06T06:03:32;21.37;;;12.03;;
4084;SDS011;2057;50.858;6.572;2023-04-06T06:06:01;19.83;;;11.90;;
4084;SDS011;2057;50.858;6.572;2023-04-06T06:08:27;20.75;;;11.73;;
4084;SDS011;2057;50.858;6.572;2023-04-06T06:10:53;22.17;;;11.67;;
4084;SDS011;2057;50.858;6.572;2023-04-06T06:13:18;20.10;;;10.70;;
4084;SDS011;2057;50.858;6.572;2023-04-06T06:15:44;24.03;;;13.23;;
4084;SDS011;2057;50.858;6.572;2023-04-06T06:18:09;22.50;;;12.77;;
4084;SDS011;2057;50.858;6.572;2023-04-06T06:20:35;19.03;;;11.80;;
4084;SDS011;2057;50.858;6.572;2023-04-06T06:23:00;23.53;;;12.60;;
4084;SDS011;2057;50.858;6.572;2023-04-06T06:27:55;25.40;;;11.82;;
4084;SDS011;2057;50.858;6.572;2023-04-06T06:30:20;25.07;;;12.03;;
4084;SDS011;2057;50.858;6.572;2023-04-06T06:32:46;29.10;;;13.87;;
4084;SDS011;2057;50.858;6.572;2023-04-06T06:35:11;42.20;;;13.60;;
4084;SDS011;2057;50.858;6.572;2023-04-06T06:37:36;22.83;;;12.80;;
4084;SDS011;2057;50.858;6.572;2023-04-06T06:40:02;25.77;;;12.90;;
4084;SDS011;2057;50.858;6.572;2023-04-06T06:42:27;27.07;;;13.53;;
4084;SDS011;2057;50.858;6.572;2023-04-06T06:44:53;33.90;;;15.03;;
4084;SDS011;2057;50.858;6.572;2023-04-06T06:47:19;29.48;;;14.60;;
4084;SDS011;2057;50.858;6.572;2023-04-06T06:49:44;40.43;;;16.03;;
4084;SDS011;2057;50.858;6.572;2023-04-06T06:52:10;25.67;;;12.50;;
4084;SDS011;2057;50.858;6.572;2023-04-06T06:54:35;37.13;;;14.10;;
4084;SDS011;2057;50.858;6.572;2023-04-06T06:57:00;40.57;;;13.43;;
4084;SDS011;2057;50.858;6.572;2023-04-06T06:59:26;45.17;;;13.90;;
4084;SDS011;2057;50.858;6.572;2023-04-06T07:01:51;25.07;;;13.37;;
4084;SDS011;2057;50.858;6.572;2023-04-06T07:04:17;31.53;;;13.70;;
4084;SDS011;2057;50.858;6.572;2023-04-06T07:06:42;30.93;;;12.90;;
4084;SDS011;2057;50.858;6.572;2023-04-06T07:09:07;33.03;;;12.60;;
4084;SDS011;2057;50.858;6.572;2023-04-06T07:11:33;23.47;;;12.93;;
4084;SDS011;2057;50.858;6.572;2023-04-06T07:13:58;27.93;;;13.97;;
4084;SDS011;2057;50.858;6.572;2023-04-06T07:16:24;23.47;;;14.00;;
4084;SDS011;2057;50.858;6.572;2023-04-06T07:18:49;22.70;;;13.50;;
4084;SDS011;2057;50.858;6.572;2023-04-06T07:21:15;22.15;;;11.40;;
4084;SDS011;2057;50.858;6.572;2023-04-06T07:23:41;24.70;;;12.90;;
4084;SDS011;2057;50.858;6.572;2023-04-06T07:26:06;34.17;;;13.03;;
4084;SDS011;2057;50.858;6.572;2023-04-06T07:28:32;32.00;;;14.87;;
4084;SDS011;2057;50.858;6.572;2023-04-06T07:30:57;23.80;;;14.60;;
4084;SDS011;2057;50.858;6.572;2023-04-06T07:33:22;28.10;;;15.43;;
4084;SDS011;2057;50.858;6.572;2023-04-06T07:35:48;31.50;;;15.40;;
4084;SDS011;2057;50.858;6.572;2023-04-06T07:38:13;27.60;;;14.90;;
4084;SDS011;2057;50.858;6.572;2023-04-06T07:40:39;28.50;;;14.80;;
4084;SDS011;2057;50.858;6.572;2023-04-06T07:43:04;32.23;;;14.97;;
4084;SDS011;2057;50.858;6.572;2023-04-06T07:45:30;35.97;;;15.77;;
4084;SDS011;2057;50.858;6.572;2023-04-06T07:47:55;23.20;;;14.60;;
4084;SDS011;2057;50.858;6.572;2023-04-06T07:50:21;27.23;;;15.63;;
4084;SDS011;2057;50.858;6.572;2023-04-06T07:52:46;26.93;;;15.10;;
4084;SDS011;2057;50.858;6.572;2023-04-06T07:55:12;26.03;;;13.67;;
4084;SDS011;2057;50.858;6.572;2023-04-06T07:57:37;25.90;;;15.40;;
4084;SDS011;2057;50.858;6.572;2023-04-06T08:00:03;37.37;;;14.47;;
4084;SDS011;2057;50.858;6.572;2023-04-06T08:02:29;23.17;;;14.40;;
4084;SDS011;2057;50.858;6.572;2023-04-06T08:04:56;24.50;;;14.40;;
4084;SDS011;2057;50.858;6.572;2023-04-06T08:07:21;26.60;;;13.80;;
4084;SDS011;2057;50.858;6.572;2023-04-06T08:09:46;21.47;;;14.30;;
4084;SDS011;2057;50.858;6.572;2023-04-06T08:12:12;26.43;;;16.03;;
4084;SDS011;2057;50.858;6.572;2023-04-06T08:14:37;28.10;;;14.90;;
4084;SDS011;2057;50.858;6.572;2023-04-06T08:17:03;33.23;;;13.23;;
4084;SDS011;2057;50.858;6.572;2023-04-06T08:19:28;35.43;;;14.23;;
4084;SDS011;2057;50.858;6.572;2023-04-06T08:21:53;19.97;;;13.13;;
4084;SDS011;2057;50.858;6.572;2023-04-06T08:24:19;41.00;;;15.07;;
4084;SDS011;2057;50.858;6.572;2023-04-06T08:26:44;27.93;;;14.80;;
4084;SDS011;2057;50.858;6.572;2023-04-06T08:29:10;37.90;;;15.20;;
4084;SDS011;2057;50.858;6.572;2023-04-06T08:31:36;24.23;;;14.03;;
4084;SDS011;2057;50.858;6.572;2023-04-06T08:34:02;31.63;;;14.77;;
4084;SDS011;2057;50.858;6.572;2023-04-06T08:36:30;27.17;;;13.40;;
4084;SDS011;2057;50.858;6.572;2023-04-06T08:38:55;42.03;;;14.90;;
4084;SDS011;2057;50.858;6.572;2023-04-06T08:41:21;29.50;;;15.03;;
4084;SDS011;2057;50.858;6.572;2023-04-06T08:43:47;24.93;;;13.33;;
4084;SDS011;2057;50.858;6.572;2023-04-06T08:46:14;25.93;;;14.27;;
4084;SDS011;2057;50.858;6.572;2023-04-06T08:48:40;23.93;;;12.20;;
4084;SDS011;2057;50.858;6.572;2023-04-06T08:51:07;26.90;;;15.87;;
4084;SDS011;2057;50.858;6.572;2023-04-06T08:53:36;32.53;;;14.63;;
4084;SDS011;2057;50.858;6.572;2023-04-06T08:56:03;33.90;;;14.57;;
4084;SDS011;2057;50.858;6.572;2023-04-06T08:58:32;23.53;;;13.57;;
4084;SDS011;2057;50.858;6.572;2023-04-06T09:01:00;32.83;;;14.00;;
4084;SDS011;2057;50.858;6.572;2023-04-06T09:03:30;25.73;;;13.17;;
4084;SDS011;2057;50.858;6.572;2023-04-06T09:05:57;23.60;;;14.43;;
4084;SDS011;2057;50.858;6.572;2023-04-06T09:08:23;20.70;;;14.30;;
4084;SDS011;2057;50.858;6.572;2023-04-06T09:10:49;44.77;;;14.07;;
4084;SDS011;2057;50.858;6.572;2023-04-06T09:13:16;26.43;;;14.37;;
4084;SDS011;2057;50.858;6.572;2023-04-06T09:15:42;33.30;;;15.90;;
4084;SDS011;2057;50.858;6.572;2023-04-06T09:18:07;28.33;;;14.33;;
4084;SDS011;2057;50.858;6.572;2023-04-06T09:20:33;35.60;;;14.77;;
4084;SDS011;2057;50.858;6.572;2023-04-06T09:22:58;29.20;;;14.50;;
4084;SDS011;2057;50.858;6.572;2023-04-06T09:25:24;28.90;;;15.07;;
4084;SDS011;2057;50.858;6.572;2023-04-06T09:28:00;30.13;;;15.20;;
4084;SDS011;2057;50.858;6.572;2023-04-06T09:30:27;26.00;;;13.83;;
4084;SDS011;2057;50.858;6.572;2023-04-06T09:32:54;46.97;;;15.60;;
4084;SDS011;2057;50.858;6.572;2023-04-06T09:35:21;23.30;;;11.63;;
4084;SDS011;2057;50.858;6.572;2023-04-06T09:37:48;32.00;;;14.10;;
4084;SDS011;2057;50.858;6.572;2023-04-06T09:40:16;26.77;;;14.43;;
4084;SDS011;2057;50.858;6.572;2023-04-06T09:42:46;28.70;;;15.43;;
4084;SDS011;2057;50.858;6.572;2023-04-06T09:45:13;29.90;;;14.73;;
4084;SDS011;2057;50.858;6.572;2023-04-06T09:47:39;28.33;;;12.30;;
4084;SDS011;2057;50.858;6.572;2023-04-06T09:50:07;24.90;;;11.80;;
4084;SDS011;2057;50.858;6.572;2023-04-06T09:52:57;22.57;;;12.13;;
4084;SDS011;2057;50.858;6.572;2023-04-06T09:55:26;29.87;;;14.40;;
4084;SDS011;2057;50.858;6.572;2023-04-06T09:58:03;31.03;;;14.07;;
4084;SDS011;2057;50.858;6.572;2023-04-06T10:00:43;23.20;;;13.17;;
4084;SDS011;2057;50.858;6.572;2023-04-06T10:06:06;25.20;;;14.30;;
4084;SDS011;2057;50.858;6.572;2023-04-06T10:08:36;31.33;;;14.60;;
4084;SDS011;2057;50.858;6.572;2023-04-06T10:11:08;27.10;;;13.03;;
4084;SDS011;2057;50.858;6.572;2023-04-06T10:13:34;27.17;;;15.30;;
4084;SDS011;2057;50.858;6.572;2023-04-06T10:16:00;33.33;;;15.63;;
4084;SDS011;2057;50.858;6.572;2023-04-06T10:18:28;27.83;;;15.90;;
4084;SDS011;2057;50.858;6.572;2023-04-06T10:20:55;30.10;;;15.67;;
4084;SDS011;2057;50.858;6.572;2023-04-06T10:23:41;36.00;;;15.50;;
4084;SDS011;2057;50.858;6.572;2023-04-06T10:26:16;26.97;;;15.00;;
4084;SDS011;2057;50.858;6.572;2023-04-06T10:28:45;33.60;;;14.47;;
4084;SDS011;2057;50.858;6.572;2023-04-06T10:31:12;34.30;;;16.30;;
4084;SDS011;2057;50.858;6.572;2023-04-06T10:33:38;25.13;;;13.50;;
4084;SDS011;2057;50.858;6.572;2023-04-06T10:36:36;28.63;;;15.00;;
4084;SDS011;2057;50.858;6.572;2023-04-06T10:38:59;23.93;;;13.80;;
4084;SDS011;2057;50.858;6.572;2023-04-06T10:41:43;29.30;;;13.83;;
4084;SDS011;2057;50.858;6.572;2023-04-06T10:44:21;28.97;;;13.17;;
4084;SDS011;2057;50.858;6.572;2023-04-06T10:46:57;25.13;;;12.87;;
4084;SDS011;2057;50.858;6.572;2023-04-06T10:49:27;26.07;;;11.83;;
4084;SDS011;2057;50.858;6.572;2023-04-06T10:51:54;27.50;;;13.70;;
4084;SDS011;2057;50.858;6.572;2023-04-06T10:54:21;27.13;;;13.37;;
4084;SDS011;2057;50.858;6.572;2023-04-06T10:56:48;37.93;;;14.80;;
4084;SDS011;2057;50.858;6.572;2023-04-06T10:59:18;24.93;;;13.17;;
4084;SDS011;2057;50.858;6.572;2023-04-06T11:01:45;20.53;;;11.87;;
4084;SDS011;2057;50.858;6.572;2023-04-06T11:04:12;28.10;;;13.30;;
4084;SDS011;2057;50.858;6.572;2023-04-06T11:06:41;25.33;;;12.93;;
4084;SDS011;2057;50.858;6.572;2023-04-06T11:09:11;22.73;;;11.63;;
4084;SDS011;2057;50.858;6.572;2023-04-06T11:11:48;22.93;;;11.17;;
4084;SDS011;2057;50.858;6.572;2023-04-06T11:14:15;25.47;;;12.47;;
4084;SDS011;2057;50.858;6.572;2023-04-06T11:16:41;22.60;;;12.00;;
4084;SDS011;2057;50.858;6.572;2023-04-06T11:19:06;20.37;;;11.43;;
4084;SDS011;2057;50.858;6.572;2023-04-06T11:24:09;23.10;;;12.63;;
4084;SDS011;2057;50.858;6.572;2023-04-06T11:26:36;28.57;;;12.57;;
4084;SDS011;2057;50.858;6.572;2023-04-06T11:29:06;19.00;;;10.10;;
4084;SDS011;2057;50.858;6.572;2023-04-06T11:31:37;13.40;;;9.03;;
4084;SDS011;2057;50.858;6.572;2023-04-06T11:34:08;22.17;;;10.33;;
4084;SDS011;2057;50.858;6.572;2023-04-06T11:36:35;20.30;;;11.90;;
4084;SDS011;2057;50.858;6.572;2023-04-06T11:39:02;16.57;;;9.00;;
4084;SDS011;2057;50.858;6.572;2023-04-06T11:41:28;17.97;;;10.47;;
4084;SDS011;2057;50.858;6.572;2023-04-06T11:43:55;24.77;;;11.03;;
4084;SDS011;2057;50.858;6.572;2023-04-06T11:46:21;16.50;;;9.60;;
4084;SDS011;2057;50.858;6.572;2023-04-06T11:48:46;15.07;;;10.20;;
4084;SDS011;2057;50.858;6.572;2023-04-06T11:51:12;18.10;;;10.57;;
4084;SDS011;2057;50.858;6.572;2023-04-06T11:53:46;17.90;;;9.80;;
4084;SDS011;2057;50.858;6.572;2023-04-06T11:56:22;21.57;;;9.77;;
4084;SDS011;2057;50.858;6.572;2023-04-06T11:58:52;13.60;;;8.67;;
4084;SDS011;2057;50.858;6.572;2023-04-06T12:01:19;15.43;;;11.17;;
4084;SDS011;2057;50.858;6.572;2023-04-06T12:03:44;17.27;;;11.93;;
4084;SDS011;2057;50.858;6.572;2023-04-06T12:06:10;13.73;;;10.07;;
4084;SDS011;2057;50.858;6.572;2023-04-06T12:08:36;19.50;;;9.00;;
4084;SDS011;2057;50.858;6.572;2023-04-06T12:11:01;19.37;;;10.13;;
4084;SDS011;2057;50.858;6.572;2023-04-06T12:13:27;18.77;;;9.63;;
4084;SDS011;2057;50.858;6.572;2023-04-06T12:15:52;18.73;;;7.90;;
4084;SDS011;2057;50.858;6.572;2023-04-06T12:18:18;13.20;;;7.70;;
4084;SDS011;2057;50.858;6.572;2023-04-06T12:20:43;11.00;;;8.07;;
4084;SDS011;2057;50.858;6.572;2023-04-06T12:23:09;10.90;;;7.00;;
4084;SDS011;2057;50.858;6.572;2023-04-06T12:25:34;13.40;;;8.93;;
4084;SDS011;2057;50.858;6.572;2023-04-06T12:28:00;11.57;;;8.30;;
4084;SDS011;2057;50.858;6.572;2023-04-06T12:30:25;13.80;;;8.70;;
4084;SDS011;2057;50.858;6.572;2023-04-06T12:32:51;18.80;;;10.83;;
4084;SDS011;2057;50.858;6.572;2023-04-06T12:37:51;14.17;;;10.10;;
4084;SDS011;2057;50.858;6.572;2023-04-06T12:40:20;17.00;;;10.43;;
4084;SDS011;2057;50.858;6.572;2023-04-06T12:42:45;18.63;;;11.27;;
4084;SDS011;2057;50.858;6.572;2023-04-06T12:45:11;18.97;;;10.57;;
4084;SDS011;2057;50.858;6.572;2023-04-06T12:47:37;16.43;;;11.30;;
4084;SDS011;2057;50.858;6.572;2023-04-06T12:50:03;17.40;;;11.03;;
4084;SDS011;2057;50.858;6.572;2023-04-06T12:52:31;15.47;;;10.40;;
4084;SDS011;2057;50.858;6.572;2023-04-06T12:55:00;13.63;;;8.53;;
4084;SDS011;2057;50.858;6.572;2023-04-06T12:57:25;24.30;;;10.40;;
4084;SDS011;2057;50.858;6.572;2023-04-06T12:59:51;21.03;;;11.50;;
4084;SDS011;2057;50.858;6.572;2023-04-06T13:02:17;16.10;;;9.87;;
4084;SDS011;2057;50.858;6.572;2023-04-06T13:04:44;18.10;;;11.10;;
4084;SDS011;2057;50.858;6.572;2023-04-06T13:07:10;12.37;;;9.10;;
4084;SDS011;2057;50.858;6.572;2023-04-06T13:09:35;21.70;;;12.80;;
4084;SDS011;2057;50.858;6.572;2023-04-06T13:12:01;15.97;;;9.67;;
4084;SDS011;2057;50.858;6.572;2023-04-06T13:14:26;20.60;;;11.30;;
4084;SDS011;2057;50.858;6.572;2023-04-06T13:16:52;24.20;;;11.00;;
4084;SDS011;2057;50.858;6.572;2023-04-06T13:19:17;18.57;;;10.50;;
4084;SDS011;2057;50.858;6.572;2023-04-06T13:21:43;17.70;;;9.50;;
4084;SDS011;2057;50.858;6.572;2023-04-06T13:24:08;21.57;;;11.03;;
4084;SDS011;2057;50.858;6.572;2023-04-06T13:26:34;16.63;;;9.53;;
4084;SDS011;2057;50.858;6.572;2023-04-06T13:29:00;16.60;;;9.67;;
4084;SDS011;2057;50.858;6.572;2023-04-06T13:31:27;16.93;;;10.30;;
4084;SDS011;2057;50.858;6.572;2023-04-06T13:33:53;17.77;;;12.00;;
4084;SDS011;2057;50.858;6.572;2023-04-06T13:36:18;16.90;;;10.20;;
4084;SDS011;2057;50.858;6.572;2023-04-06T13:38:43;16.80;;;10.30;;
4084;SDS011;2057;50.858;6.572;2023-04-06T13:41:10;18.53;;;10.30;;
4084;SDS011;2057;50.858;6.572;2023-04-06T13:43:42;15.90;;;9.53;;
4084;SDS011;2057;50.858;6.572;2023-04-06T13:46:07;16.73;;;9.93;;
4084;SDS011;2057;50.858;6.572;2023-04-06T13:48:33;16.30;;;9.40;;
4084;SDS011;2057;50.858;6.572;2023-04-06T13:51:07;22.43;;;11.80;;
4084;SDS011;2057;50.858;6.572;2023-04-06T13:53:36;17.73;;;10.03;;
4084;SDS011;2057;50.858;6.572;2023-04-06T13:56:02;17.63;;;10.60;;
4084;SDS011;2057;50.858;6.572;2023-04-06T13:58:27;17.67;;;10.60;;
4084;SDS011;2057;50.858;6.572;2023-04-06T14:00:53;12.40;;;8.77;;
4084;SDS011;2057;50.858;6.572;2023-04-06T14:03:18;13.00;;;8.20;;
4084;SDS011;2057;50.858;6.572;2023-04-06T14:05:45;17.10;;;9.70;;
4084;SDS011;2057;50.858;6.572;2023-04-06T14:08:10;16.70;;;9.90;;
4084;SDS011;2057;50.858;6.572;2023-04-06T14:10:36;16.00;;;10.13;;
4084;SDS011;2057;50.858;6.572;2023-04-06T14:13:03;16.50;;;10.60;;
4084;SDS011;2057;50.858;6.572;2023-04-06T14:15:29;16.13;;;10.60;;
4084;SDS011;2057;50.858;6.572;2023-04-06T14:17:54;15.43;;;8.93;;
4084;SDS011;2057;50.858;6.572;2023-04-06T14:20:20;12.97;;;8.90;;
4084;SDS011;2057;50.858;6.572;2023-04-06T14:22:45;16.43;;;9.03;;
4084;SDS011;2057;50.858;6.572;2023-04-06T14:25:11;12.37;;;8.50;;
4084;SDS011;2057;50.858;6.572;2023-04-06T14:27:37;18.90;;;8.77;;
4084;SDS011;2057;50.858;6.572;2023-04-06T14:30:03;12.50;;;8.07;;
4084;SDS011;2057;50.858;6.572;2023-04-06T14:32:29;10.73;;;8.43;;
4084;SDS011;2057;50.858;6.572;2023-04-06T14:34:54;13.13;;;8.47;;
4084;SDS011;2057;50.858;6.572;2023-04-06T14:37:19;18.13;;;10.33;;
4084;SDS011;2057;50.858;6.572;2023-04-06T14:39:46;12.07;;;8.90;;
4084;SDS011;2057;50.858;6.572;2023-04-06T14:42:11;17.53;;;10.27;;
4084;SDS011;2057;50.858;6.572;2023-04-06T14:44:36;13.97;;;9.60;;
4084;SDS011;2057;50.858;6.572;2023-04-06T14:47:03;14.77;;;8.73;;
4084;SDS011;2057;50.858;6.572;2023-04-06T14:49:29;13.80;;;9.07;;
4084;SDS011;2057;50.858;6.572;2023-04-06T14:51:54;16.13;;;8.80;;
4084;SDS011;2057;50.858;6.572;2023-04-06T14:54:20;16.43;;;10.43;;
4084;SDS011;2057;50.858;6.572;2023-04-06T14:56:45;19.53;;;10.77;;